createdAt,value
2023-04-15T00:01:10.175Z,5.19
2023-04-15T00:03:36.939Z,5.05
2023-04-15T00:06:03.879Z,5.03
2023-04-15T00:08:35.353Z,5.14
2023-04-15T00:11:06.796Z,5.08
2023-04-15T00:13:36.053Z,5.15
2023-04-15T00:16:02.696Z,5.32
2023-04-15T00:18:35.004Z,5.16
2023-04-15T00:21:04.570Z,5.20
2023-04-15T00:23:31.796Z,5.24
2023-04-15T00:25:58.358Z,5.10
2023-04-15T00:28:25.028Z,5.19
2023-04-15T00:30:56.593Z,5.22
2023-04-15T00:33:23.160Z,5.20
2023-04-15T00:35:53.685Z,5.44
2023-04-15T00:38:23.237Z,5.56
2023-04-15T00:40:50.206Z,5.72
2023-04-15T00:43:19.024Z,5.82
2023-04-15T00:45:48.058Z,5.93
2023-04-15T00:48:15.588Z,6.06
2023-04-15T00:50:42.134Z,6.09
2023-04-15T00:53:10.881Z,6.07
2023-04-15T00:55:40.092Z,5.70
2023-04-15T00:58:08.928Z,5.79
2023-04-15T01:00:36.005Z,5.90
2023-04-15T01:03:04.992Z,5.80
2023-04-15T01:05:37.051Z,5.79
2023-04-15T01:08:05.742Z,5.80
2023-04-15T01:10:34.622Z,5.92
2023-04-15T01:13:01.149Z,5.82
2023-04-15T01:15:29.755Z,5.57
2023-04-15T01:17:58.587Z,5.52
2023-04-15T01:20:25.258Z,5.84
2023-04-15T01:22:55.089Z,5.94
2023-04-15T01:25:34.816Z,5.70
2023-04-15T01:28:04.922Z,5.44
2023-04-15T01:30:35.048Z,5.60
2023-04-15T01:33:01.870Z,5.76
2023-04-15T01:35:31.028Z,5.64
2023-04-15T01:38:11.442Z,5.71
2023-04-15T01:40:40.966Z,5.66
2023-04-15T01:43:09.790Z,5.88
2023-04-15T01:45:36.367Z,6.08
2023-04-15T01:48:05.234Z,6.20
2023-04-15T01:50:32.212Z,6.33
2023-04-15T01:53:01.192Z,6.07
2023-04-15T01:55:30.457Z,6.30
2023-04-15T01:57:57.423Z,6.40
2023-04-15T02:00:26.676Z,6.52
2023-04-15T02:02:53.262Z,6.19
2023-04-15T02:05:22.336Z,6.45
2023-04-15T02:07:52.378Z,6.59
2023-04-15T02:10:18.979Z,6.51
2023-04-15T02:12:45.859Z,6.61
2023-04-15T02:15:12.409Z,6.68
2023-04-15T02:17:41.755Z,6.45
2023-04-15T02:20:09.104Z,6.68
2023-04-15T02:22:35.778Z,6.63
2023-04-15T02:25:02.487Z,6.46
2023-04-15T02:27:29.082Z,6.64
2023-04-15T02:30:00.579Z,6.60
2023-04-15T02:32:27.194Z,6.70
2023-04-15T02:34:58.295Z,6.83
2023-04-15T02:37:27.240Z,6.99
2023-04-15T02:39:53.759Z,6.52
2023-04-15T02:42:21.690Z,6.67
2023-04-15T02:44:48.365Z,6.68
2023-04-15T02:47:16.044Z,6.63
2023-04-15T02:49:42.640Z,6.69
2023-04-15T02:52:10.041Z,6.69
2023-04-15T02:54:39.093Z,6.79
2023-04-15T02:57:06.890Z,6.59
2023-04-15T02:59:35.871Z,6.39
2023-04-15T03:02:02.705Z,6.40
2023-04-15T03:04:34.121Z,6.61
2023-04-15T03:07:01.918Z,6.88
2023-04-15T03:09:28.522Z,6.78
2023-04-15T03:11:59.866Z,6.66
2023-04-15T03:14:28.787Z,6.86
2023-04-15T03:17:00.050Z,6.95
2023-04-15T03:19:26.625Z,6.88
2023-04-15T03:21:55.432Z,7.00
2023-04-15T03:24:22.059Z,6.98
2023-04-15T03:26:51.499Z,6.58
2023-04-15T03:29:23.312Z,6.41
2023-04-15T03:31:50.037Z,6.75
2023-04-15T03:34:18.843Z,6.85
2023-04-15T03:36:46.853Z,6.73
2023-04-15T03:39:13.643Z,6.66
2023-04-15T03:41:40.542Z,6.75
2023-04-15T03:44:11.951Z,6.74
2023-04-15T03:46:38.613Z,6.82
2023-04-15T03:49:07.718Z,7.05
2023-04-15T03:51:34.302Z,6.75
2023-04-15T03:54:03.296Z,6.85
2023-04-15T03:56:32.095Z,6.79
2023-04-15T03:59:01.457Z,6.71
2023-04-15T04:01:28.253Z,6.73
2023-04-15T04:03:55.046Z,6.64
2023-04-15T04:06:21.821Z,6.58
2023-04-15T04:08:48.352Z,6.64
2023-04-15T04:11:14.913Z,6.78
2023-04-15T04:13:41.522Z,6.83
2023-04-15T04:16:10.978Z,6.93
2023-04-15T04:18:37.604Z,7.02
2023-04-15T04:21:04.230Z,7.04
2023-04-15T04:23:33.272Z,7.04
2023-04-15T04:25:59.896Z,6.76
2023-04-15T04:28:30.776Z,6.60
2023-04-15T04:30:59.654Z,6.82
2023-04-15T04:33:28.682Z,6.62
2023-04-15T04:35:55.243Z,6.77
2023-04-15T04:38:24.139Z,7.25
2023-04-15T04:40:50.750Z,7.20
2023-04-15T04:43:17.447Z,7.31
2023-04-15T04:45:49.340Z,7.31
2023-04-15T04:48:18.936Z,7.34
2023-04-15T04:50:48.165Z,7.25
2023-04-15T04:53:14.990Z,7.30
2023-04-15T04:55:41.546Z,7.41
2023-04-15T04:58:10.697Z,7.51
2023-04-15T05:00:38.515Z,7.51
2023-04-15T05:03:05.225Z,7.25
2023-04-15T05:05:35.543Z,7.27
2023-04-15T05:08:02.242Z,7.44
2023-04-15T05:10:31.817Z,7.55
2023-04-15T05:13:00.980Z,7.55
2023-04-15T05:15:27.544Z,7.52
2023-04-15T05:17:56.422Z,7.57
2023-04-15T05:20:27.612Z,7.58
2023-04-15T05:22:54.189Z,7.33
2023-04-15T05:25:21.254Z,7.34
2023-04-15T05:27:51.439Z,7.39
2023-04-15T05:30:18.068Z,7.51
2023-04-15T05:32:44.582Z,7.58
2023-04-15T05:35:11.128Z,7.55
2023-04-15T05:37:37.698Z,7.44
2023-04-15T05:40:06.593Z,7.53
2023-04-15T05:42:38.198Z,7.64
2023-04-15T05:45:09.357Z,7.87
2023-04-15T05:47:40.570Z,7.77
2023-04-15T05:50:07.428Z,7.79
2023-04-15T05:52:34.029Z,8.11
2023-04-15T05:55:05.500Z,8.02
2023-04-15T05:57:32.120Z,8.05
2023-04-15T06:00:01.793Z,8.10
2023-04-15T06:02:31.612Z,8.06
2023-04-15T06:05:01.069Z,7.93
2023-04-15T06:07:27.842Z,8.12
2023-04-15T06:09:58.951Z,8.07
2023-04-15T06:12:25.497Z,8.12
2023-04-15T06:14:52.086Z,8.27
2023-04-15T06:17:19.342Z,8.39
2023-04-15T06:19:50.379Z,8.48
2023-04-15T06:22:22.269Z,8.59
2023-04-15T06:24:51.564Z,8.59
2023-04-15T06:27:18.143Z,8.67
2023-04-15T06:29:47.701Z,8.54
2023-04-15T06:32:14.293Z,8.63
2023-04-15T06:34:43.051Z,8.72
2023-04-15T06:37:16.262Z,8.82
2023-04-15T06:39:43.638Z,8.80
2023-04-15T06:42:15.211Z,8.93
2023-04-15T06:44:44.484Z,8.93
2023-04-15T06:47:14.728Z,9.05
2023-04-15T06:49:41.537Z,9.08
2023-04-15T06:52:08.234Z,9.21
2023-04-15T06:54:36.988Z,9.29
2023-04-15T06:57:03.704Z,9.63
2023-04-15T06:59:35.456Z,9.60
2023-04-15T07:02:03.761Z,9.49
2023-04-15T07:04:32.983Z,9.42
2023-04-15T07:07:04.433Z,9.31
2023-04-15T07:09:31.314Z,9.33
2023-04-15T07:11:57.977Z,9.66
2023-04-15T07:14:27.877Z,9.65
2023-04-15T07:16:54.581Z,9.96
2023-04-15T07:19:21.853Z,9.83
2023-04-15T07:21:50.636Z,10.37
2023-04-15T07:24:19.019Z,10.46
2023-04-15T07:26:46.049Z,10.80
2023-04-15T07:29:12.602Z,10.45
2023-04-15T07:31:46.524Z,10.48
2023-04-15T07:34:17.937Z,10.39
2023-04-15T07:36:44.514Z,10.51
2023-04-15T07:39:21.810Z,10.56
2023-04-15T07:41:49.335Z,10.25
2023-04-15T07:44:16.762Z,10.09
2023-04-15T07:46:43.392Z,10.22
2023-04-15T07:49:13.444Z,10.02
2023-04-15T07:51:40.061Z,10.02
2023-04-15T07:54:06.576Z,10.16
2023-04-15T07:56:33.145Z,10.01
2023-04-15T07:59:02.364Z,10.01
2023-04-15T08:01:29.288Z,10.26
2023-04-15T08:03:59.594Z,10.49
2023-04-15T08:06:26.230Z,10.94
2023-04-15T08:08:57.847Z,10.62
2023-04-15T08:11:24.931Z,10.78
2023-04-15T08:13:52.529Z,10.66
2023-04-15T08:16:24.665Z,10.72
2023-04-15T08:18:53.225Z,10.68
2023-04-15T08:21:22.882Z,10.89
2023-04-15T08:23:53.443Z,10.77
2023-04-15T08:26:21.329Z,10.57
2023-04-15T08:28:51.690Z,10.60
2023-04-15T08:31:21.973Z,10.47
2023-04-15T08:33:52.539Z,10.54
2023-04-15T08:36:21.561Z,10.51
2023-04-15T08:38:48.164Z,10.43
2023-04-15T08:41:23.657Z,10.29
2023-04-15T08:43:59.211Z,10.42
2023-04-15T08:46:29.255Z,10.92
2023-04-15T08:48:59.267Z,11.17
2023-04-15T08:51:31.133Z,11.24
2023-04-15T08:53:57.826Z,11.20
2023-04-15T08:56:33.013Z,11.17
2023-04-15T08:59:02.915Z,11.17
2023-04-15T09:01:30.053Z,11.12
2023-04-15T09:03:57.243Z,11.21
2023-04-15T09:06:25.084Z,11.18
2023-04-15T09:08:54.803Z,11.23
2023-04-15T09:11:22.391Z,11.28
2023-04-15T09:13:52.308Z,11.50
2023-04-15T09:16:19.020Z,11.63
2023-04-15T09:18:45.722Z,11.50
2023-04-15T09:21:17.679Z,11.39
2023-04-15T09:24:02.508Z,11.02
2023-04-15T09:26:40.238Z,10.86
2023-04-15T09:29:13.511Z,10.83
2023-04-15T09:31:41.144Z,10.66
2023-04-15T09:34:10.339Z,10.52
2023-04-15T09:36:56.986Z,10.41
2023-04-15T09:39:23.577Z,10.52
2023-04-15T09:42:09.095Z,10.77
2023-04-15T09:44:35.885Z,10.82
2023-04-15T09:47:02.500Z,10.92
2023-04-15T09:49:29.272Z,10.72
2023-04-15T09:52:06.056Z,10.69
2023-04-15T09:54:36.789Z,10.73
2023-04-15T09:57:15.826Z,10.79
2023-04-15T09:59:42.389Z,10.73
2023-04-15T10:02:12.881Z,10.48
2023-04-15T10:04:41.654Z,10.56
2023-04-15T10:07:12.779Z,10.44
2023-04-15T10:09:40.203Z,10.83
2023-04-15T10:12:09.211Z,10.92
2023-04-15T10:14:41.530Z,10.67
2023-04-15T10:17:11.751Z,10.48
2023-04-15T10:19:38.639Z,10.35
2023-04-15T10:22:08.153Z,10.28
2023-04-15T10:24:38.970Z,10.39
2023-04-15T10:27:06.444Z,10.43
2023-04-15T10:29:33.802Z,10.49
2023-04-15T10:32:01.759Z,10.70
2023-04-15T10:34:29.995Z,10.95
2023-04-15T10:36:58.379Z,11.03
2023-04-15T10:39:48.632Z,11.14
2023-04-15T10:42:20.539Z,11.13
2023-04-15T10:44:54.213Z,10.61
2023-04-15T10:47:22.053Z,10.25
2023-04-15T10:49:51.640Z,10.19
2023-04-15T10:52:23.621Z,10.21
2023-04-15T10:55:04.068Z,10.32
2023-04-15T10:57:45.570Z,10.31
2023-04-15T11:00:15.527Z,10.49
2023-04-15T11:02:48.149Z,10.53
2023-04-15T11:05:19.496Z,10.42
2023-04-15T11:08:01.212Z,10.41
2023-04-15T11:10:31.186Z,10.37
2023-04-15T11:13:13.727Z,10.52
2023-04-15T11:15:48.544Z,10.55
2023-04-15T11:18:15.044Z,10.60
2023-04-15T11:21:04.755Z,10.74
2023-04-15T11:23:47.945Z,11.13
2023-04-15T11:26:15.497Z,11.19
2023-04-15T11:28:46.093Z,10.89
2023-04-15T11:31:14.613Z,11.00
2023-04-15T11:34:04.965Z,10.85
2023-04-15T11:36:34.505Z,10.69
2023-04-15T11:39:07.395Z,10.99
2023-04-15T11:41:38.218Z,11.16
2023-04-15T11:44:18.859Z,11.14
2023-04-15T11:46:47.734Z,11.24
2023-04-15T11:49:27.641Z,11.21
2023-04-15T11:51:54.257Z,11.05
2023-04-15T11:54:26.119Z,10.83
2023-04-15T11:56:53.687Z,10.81
2023-04-15T11:59:20.493Z,11.06
2023-04-15T12:01:49.978Z,11.16
2023-04-15T12:04:23.222Z,11.17
2023-04-15T12:06:51.846Z,11.37
2023-04-15T12:09:20.949Z,11.39
2023-04-15T12:11:48.828Z,11.42
2023-04-15T12:14:25.753Z,11.71
2023-04-15T12:16:58.210Z,11.60
2023-04-15T12:19:30.652Z,11.61
2023-04-15T12:22:02.552Z,11.84
2023-04-15T12:24:35.617Z,11.83
2023-04-15T12:27:06.954Z,12.06
2023-04-15T12:29:38.736Z,11.74
2023-04-15T12:32:10.426Z,11.84
2023-04-15T12:34:41.904Z,11.75
2023-04-15T12:37:10.731Z,11.73
2023-04-15T12:39:45.308Z,11.78
2023-04-15T12:42:14.949Z,11.80
2023-04-15T12:44:44.204Z,11.58
2023-04-15T12:47:15.814Z,11.54
2023-04-15T12:49:42.406Z,11.76
2023-04-15T12:52:13.677Z,12.00
2023-04-15T12:54:40.846Z,12.08
2023-04-15T12:57:10.817Z,12.03
2023-04-15T13:02:24.607Z,11.86
2023-04-15T13:04:58.467Z,11.79
2023-04-15T13:07:49.906Z,11.89
2023-04-15T13:10:36.704Z,11.92
2023-04-15T13:13:03.584Z,11.90
2023-04-15T13:18:45.582Z,11.64
2023-04-15T13:24:44.760Z,11.86
2023-04-15T13:27:11.669Z,11.76
2023-04-15T13:29:38.759Z,11.89
2023-04-15T13:32:06.036Z,11.83
2023-04-15T13:34:32.642Z,11.67
2023-04-15T13:37:06.080Z,11.71
2023-04-15T13:39:32.593Z,11.93
2023-04-15T13:41:59.337Z,11.78
2023-04-15T13:44:25.938Z,11.85
2023-04-15T13:46:52.899Z,11.92
2023-04-15T13:49:19.539Z,11.73
2023-04-15T13:51:50.856Z,11.61
2023-04-15T13:54:17.501Z,11.50
2023-04-15T13:56:46.445Z,11.61
2023-04-15T13:59:13.183Z,11.73
2023-04-15T14:01:42.020Z,11.72
2023-04-15T14:04:11.125Z,11.98
2023-04-15T14:06:40.531Z,12.30
2023-04-15T14:09:07.238Z,12.29
2023-04-15T14:11:36.704Z,12.28
2023-04-15T14:14:03.513Z,12.20
2023-04-15T14:16:30.275Z,12.08
2023-04-15T14:18:58.086Z,11.97
2023-04-15T14:21:24.765Z,12.04
2023-04-15T14:23:53.655Z,12.02
2023-04-15T14:26:20.392Z,12.00
2023-04-15T14:28:48.454Z,11.94
2023-04-15T14:31:17.700Z,11.76
2023-04-15T14:33:44.314Z,11.78
2023-04-15T14:36:13.399Z,11.76
2023-04-15T14:38:40.199Z,11.88
2023-04-15T14:41:08.147Z,11.78
2023-04-15T14:43:37.316Z,11.70
2023-04-15T14:46:04.094Z,11.70
2023-04-15T14:48:31.881Z,11.61
2023-04-15T14:50:59.224Z,11.59
2023-04-15T14:53:25.982Z,11.75
2023-04-15T14:55:52.594Z,11.64
2023-04-15T14:58:19.170Z,11.56
2023-04-15T15:00:46.094Z,11.81
2023-04-15T15:03:15.799Z,11.95
2023-04-15T15:05:44.821Z,11.59
2023-04-15T15:08:12.170Z,11.45
2023-04-15T15:10:49.504Z,11.72
2023-04-15T15:13:17.452Z,11.57
2023-04-15T15:15:46.422Z,11.51
2023-04-15T15:18:13.146Z,11.44
2023-04-15T15:20:39.879Z,11.26
2023-04-15T15:23:06.510Z,11.23
2023-04-15T15:25:33.088Z,11.27
2023-04-15T15:28:01.880Z,11.20
2023-04-15T15:30:39.868Z,11.21
2023-04-15T15:33:55.949Z,11.34
2023-04-15T15:36:24.997Z,11.26
2023-04-15T15:38:54.292Z,11.30
2023-04-15T15:41:21.266Z,11.19
2023-04-15T15:43:58.767Z,11.21
2023-04-15T15:46:31.752Z,11.23
2023-04-15T15:49:19.704Z,11.11
2023-04-15T15:51:46.907Z,11.12
2023-04-15T15:54:13.995Z,11.05
2023-04-15T15:56:45.263Z,10.83
2023-04-15T15:59:11.804Z,10.78
2023-04-15T16:01:44.519Z,10.52
2023-04-15T16:04:22.504Z,10.38
2023-04-15T16:09:31.790Z,10.10
2023-04-15T16:12:02.849Z,10.25
2023-04-15T16:14:29.860Z,10.42
2023-04-15T16:17:02.517Z,10.43
2023-04-15T16:19:55.605Z,10.37
2023-04-15T16:22:30.545Z,10.50
2023-04-15T16:24:57.117Z,10.65
2023-04-15T16:27:23.718Z,10.51
2023-04-15T16:29:52.552Z,10.62
2023-04-15T16:32:19.505Z,10.43
2023-04-15T16:34:48.417Z,10.46
2023-04-15T16:37:17.193Z,10.49
2023-04-15T16:39:46.106Z,10.57
2023-04-15T16:42:12.711Z,10.60
2023-04-15T16:44:39.275Z,10.72
2023-04-15T16:47:05.946Z,10.67
2023-04-15T16:49:35.596Z,10.59
2023-04-15T16:52:04.716Z,10.66
2023-04-15T16:54:32.726Z,10.57
2023-04-15T16:56:59.311Z,10.59
2023-04-15T16:59:30.717Z,10.54
2023-04-15T17:01:57.468Z,10.31
2023-04-15T17:04:27.405Z,10.29
2023-04-15T17:06:56.436Z,10.41
2023-04-15T17:09:22.998Z,10.03
2023-04-15T17:11:54.579Z,10.17
2023-04-15T17:14:23.667Z,10.00
2023-04-15T17:16:52.498Z,9.94
2023-04-15T17:19:23.588Z,10.01
2023-04-15T17:21:54.264Z,9.95
2023-04-15T17:24:21.496Z,10.11
2023-04-15T17:26:48.037Z,10.23
2023-04-15T17:29:14.645Z,10.14
2023-04-15T17:31:43.537Z,9.94
2023-04-15T17:34:11.643Z,9.98
2023-04-15T17:36:39.166Z,9.99
2023-04-15T17:39:06.203Z,9.93
2023-04-15T17:41:35.403Z,9.89
2023-04-15T17:44:04.532Z,9.86
2023-04-15T17:46:32.010Z,9.81
2023-04-15T17:48:58.583Z,9.93
2023-04-15T17:51:28.431Z,9.73
2023-04-15T17:53:55.114Z,9.70
2023-04-15T17:56:22.399Z,9.56
2023-04-15T17:58:48.962Z,9.57
2023-04-15T18:01:15.507Z,9.67
2023-04-15T18:03:47.229Z,9.80
2023-04-15T18:06:16.905Z,9.84
2023-04-15T18:08:45.942Z,9.87
2023-04-15T18:11:16.066Z,9.65
2023-04-15T18:13:43.707Z,9.61
2023-04-15T18:16:13.268Z,9.61
2023-04-15T18:18:44.321Z,9.49
2023-04-15T18:21:13.430Z,9.50
2023-04-15T18:23:40.396Z,9.35
2023-04-15T18:26:23.978Z,9.33
2023-04-15T18:28:54.878Z,9.16
2023-04-15T18:31:37.496Z,9.27
2023-04-15T18:34:06.646Z,9.41
2023-04-15T18:36:33.495Z,9.19
2023-04-15T18:39:00.107Z,9.22
2023-04-15T18:41:29.763Z,9.26
2023-04-15T18:44:43.600Z,9.17
2023-04-15T18:47:01.469Z,9.03
2023-04-15T18:49:35.263Z,9.01
2023-04-15T18:52:10.929Z,8.94
2023-04-15T18:54:40.858Z,9.07
2023-04-15T18:57:10.674Z,9.12
2023-04-15T18:59:47.982Z,9.20
2023-04-15T19:02:14.577Z,9.22
2023-04-15T19:04:49.936Z,9.23
2023-04-15T19:07:16.641Z,9.13
2023-04-15T19:09:45.735Z,8.99
2023-04-15T19:12:19.521Z,8.94
2023-04-15T19:14:48.591Z,8.73
2023-04-15T19:17:17.561Z,8.61
2023-04-15T19:19:54.911Z,8.71
2023-04-15T19:22:29.517Z,8.82
2023-04-15T19:25:03.430Z,8.95
2023-04-15T19:27:59.987Z,8.97
2023-04-15T19:30:36.923Z,8.95
2023-04-15T19:33:31.245Z,9.00
2023-04-15T19:36:02.286Z,9.01
2023-04-15T19:38:29.126Z,8.98
2023-04-15T19:40:58.074Z,8.97
2023-04-15T19:43:27.726Z,9.00
2023-04-15T19:45:58.988Z,9.03
2023-04-15T19:48:28.130Z,9.07
2023-04-15T19:50:57.186Z,9.09
2023-04-15T19:53:25.651Z,8.73
2023-04-15T19:55:57.241Z,8.68
2023-04-15T19:58:26.136Z,8.79
2023-04-15T20:00:52.681Z,8.83
2023-04-15T20:03:19.692Z,8.91
2023-04-15T20:05:46.695Z,8.98
2023-04-15T20:08:13.306Z,9.05
2023-04-15T20:10:39.848Z,9.04
2023-04-15T20:13:06.585Z,9.04
2023-04-15T20:15:33.218Z,9.08
2023-04-15T20:17:59.822Z,9.08
2023-04-15T20:20:26.688Z,9.05
2023-04-15T20:22:53.284Z,8.89
2023-04-15T20:25:19.914Z,8.94
2023-04-15T20:27:48.711Z,8.87
2023-04-15T20:30:15.641Z,8.85
2023-04-15T20:32:44.669Z,8.96
2023-04-15T20:35:11.340Z,9.04
2023-04-15T20:37:38.291Z,8.97
2023-04-15T20:40:05.362Z,8.88
2023-04-15T20:42:34.760Z,8.81
2023-04-15T20:45:03.921Z,8.90
2023-04-15T20:47:30.572Z,9.04
2023-04-15T20:49:57.245Z,9.04
2023-04-15T20:52:23.924Z,9.03
2023-04-15T20:54:51.257Z,9.04
2023-04-15T20:57:18.332Z,8.98
2023-04-15T20:59:44.912Z,8.95
2023-04-15T21:02:11.738Z,8.97
2023-04-15T21:04:38.860Z,8.97
2023-04-15T21:07:05.650Z,8.70
2023-04-15T21:09:34.476Z,8.46
2023-04-15T21:12:08.328Z,8.47
2023-04-15T21:14:42.295Z,8.22
2023-04-15T21:17:11.168Z,8.39
2023-04-15T21:19:38.275Z,8.47
2023-04-15T21:22:04.928Z,8.64
2023-04-15T21:24:31.517Z,8.66
2023-04-15T21:27:02.032Z,8.68
2023-04-15T21:29:28.921Z,8.73
2023-04-15T21:31:55.805Z,8.77
2023-04-15T21:34:22.433Z,8.80
2023-04-15T21:36:49.139Z,8.69
2023-04-15T21:39:16.077Z,8.25
2023-04-15T21:41:42.716Z,8.51
2023-04-15T21:44:09.312Z,8.54
2023-04-15T21:46:38.289Z,8.62
2023-04-15T21:49:07.053Z,8.64
2023-04-15T21:51:33.866Z,8.45
2023-04-15T21:54:00.479Z,8.58
2023-04-15T21:56:27.054Z,8.50
2023-04-15T21:58:56.933Z,8.35
2023-04-15T22:01:24.492Z,8.53
2023-04-15T22:03:51.514Z,8.64
2023-04-15T22:06:23.661Z,8.56
2023-04-15T22:08:57.095Z,8.17
2023-04-15T22:11:27.634Z,7.83
2023-04-15T22:13:58.552Z,8.20
2023-04-15T22:16:26.624Z,8.09
2023-04-15T22:18:58.247Z,8.23
2023-04-15T22:21:24.782Z,8.10
2023-04-15T22:23:51.739Z,8.25
2023-04-15T22:26:18.431Z,8.39
2023-04-15T22:28:45.311Z,8.50
2023-04-15T22:31:14.977Z,8.38
2023-04-15T22:33:41.626Z,8.26
2023-04-15T22:36:08.146Z,8.10
2023-04-15T22:38:37.000Z,8.16
2023-04-15T22:41:08.325Z,8.04
2023-04-15T22:43:34.926Z,8.27
2023-04-15T22:46:01.753Z,8.27
2023-04-15T22:48:30.669Z,8.14
2023-04-15T22:50:59.546Z,7.91
2023-04-15T22:53:26.413Z,7.82
2023-04-15T22:55:56.010Z,8.05
2023-04-15T22:58:22.677Z,8.22
2023-04-15T23:00:51.517Z,8.30
2023-04-15T23:03:20.352Z,8.18
2023-04-15T23:05:47.451Z,8.26
2023-04-15T23:08:14.084Z,8.26
2023-04-15T23:10:44.663Z,8.09
2023-04-15T23:13:11.258Z,7.97
2023-04-15T23:15:37.818Z,8.04
2023-04-15T23:18:04.390Z,8.15
2023-04-15T23:20:30.994Z,8.02
2023-04-15T23:22:57.599Z,8.07
2023-04-15T23:25:24.284Z,7.91
2023-04-15T23:27:50.867Z,8.03
2023-04-15T23:30:17.439Z,8.10
2023-04-15T23:32:44.047Z,8.00
2023-04-15T23:35:12.987Z,8.07
2023-04-15T23:37:39.523Z,8.04
2023-04-15T23:40:11.707Z,8.16
2023-04-15T23:42:38.251Z,8.17
2023-04-15T23:45:05.141Z,8.26
2023-04-15T23:47:31.765Z,8.07
2023-04-15T23:50:00.722Z,7.90
2023-04-15T23:52:27.693Z,7.89
2023-04-15T23:54:56.481Z,7.48
2023-04-15T23:57:23.080Z,7.69
2023-04-15T23:59:49.663Z,7.86
